Terminal Aerodrome Forecast
Issued by NWS

Home | Current Version | Previous Version | Text Only | Print | Product List | Glossary On
Versions: 1 2 3 4 5 6 7 8 9 10 11 12 13 14 15 16 17 18 19 20 21 22 23 24 25 26 27 28 29 30 31 32 33 34 35 36 37 38 39 40 41 42 43 44 45 46 47 48 49 50
000
FTUS45 KBOU 040147 AAB
TAFAPA
TAF AMD
KAPA 040147Z 0402/0424 09012KT P6SM BKN060 OVC080
      TEMPO 0402/0403 VRB15G25KT -SHRA OVC060
     FM040300 04008KT P6SM VCSH BKN060 OVC080
      TEMPO 0403/0406 -SHRA BKN045
     FM040600 35007KT P6SM -SHRA BKN035 OVC045
      TEMPO 0408/0411 3SM -RA BR BKN018 OVC030
     FM041100 04006KT 1 1/2SM -RA BR BKN008 OVC014
     FM041600 08007KT 3SM BR VCSH BKN018 OVC025
     FM042000 12008KT P6SM VCTS BKN040 BKN060CB
      TEMPO 0421/0424 3SM -TSRA BKN030CB=

USA.gov is the U.S. government's official web portal to all federal, state and local government web resources and services.